createdAt,value
2018-08-03T00:00:33.702Z,76.06
2018-08-03T00:03:02.369Z,75.95
2018-08-03T00:05:30.961Z,76.54
2018-08-03T00:07:59.615Z,77.25
2018-08-03T00:10:28.249Z,77.29
2018-08-03T00:12:56.871Z,76.38
2018-08-03T00:15:25.569Z,76.83
2018-08-03T00:17:54.254Z,77.22
2018-08-03T00:20:22.933Z,76.93
2018-08-03T00:22:51.586Z,76.66
2018-08-03T00:25:20.262Z,76.20
2018-08-03T00:27:48.942Z,76.21
2018-08-03T00:30:17.629Z,76.59
2018-08-03T00:32:46.252Z,76.87
2018-08-03T00:35:14.945Z,76.56
2018-08-03T00:37:43.625Z,76.75
2018-08-03T00:40:12.267Z,76.84
2018-08-03T00:42:40.859Z,76.89
2018-08-03T00:45:09.535Z,77.08
2018-08-03T00:47:38.174Z,77.26
2018-08-03T00:50:06.823Z,77.33
2018-08-03T00:52:35.458Z,77.41
2018-08-03T00:55:04.210Z,77.59
2018-08-03T00:57:32.859Z,77.83
2018-08-03T01:00:01.548Z,77.54
2018-08-03T01:02:30.173Z,77.55
2018-08-03T01:04:58.934Z,77.78
2018-08-03T01:07:27.594Z,77.70
2018-08-03T01:09:56.281Z,77.78
2018-08-03T01:12:24.984Z,77.88
2018-08-03T01:14:53.611Z,77.77
2018-08-03T01:17:22.254Z,78.13
2018-08-03T01:19:50.934Z,78.17
2018-08-03T01:22:19.578Z,78.39
2018-08-03T01:24:48.222Z,78.43
2018-08-03T01:27:16.890Z,78.72
2018-08-03T01:29:45.606Z,78.92
2018-08-03T01:32:14.244Z,78.79
2018-08-03T01:34:42.861Z,78.80
2018-08-03T01:37:11.484Z,79.09
2018-08-03T01:39:40.105Z,79.47
2018-08-03T01:42:08.803Z,79.21
2018-08-03T01:44:37.446Z,79.36
2018-08-03T01:47:06.225Z,79.48
2018-08-03T01:49:34.872Z,79.28
2018-08-03T01:52:03.592Z,79.27
2018-08-03T01:54:32.245Z,78.71
2018-08-03T01:57:00.946Z,79.03
2018-08-03T01:59:29.747Z,78.90
2018-08-03T02:01:58.439Z,79.24
2018-08-03T02:04:27.103Z,78.18
2018-08-03T02:06:55.773Z,78.35
2018-08-03T02:09:24.431Z,78.58
2018-08-03T02:11:53.060Z,78.63
2018-08-03T02:14:21.746Z,78.47
2018-08-03T02:16:50.407Z,77.93
2018-08-03T02:19:19.036Z,78.06
2018-08-03T02:21:47.710Z,78.10
2018-08-03T02:24:16.339Z,78.46
2018-08-03T02:26:45.003Z,78.46
2018-08-03T02:29:13.654Z,78.58
2018-08-03T02:31:42.293Z,78.99
2018-08-03T02:34:11.018Z,78.41
2018-08-03T02:36:39.653Z,78.68
2018-08-03T02:39:10.048Z,79.33
2018-08-03T02:41:38.988Z,78.80
2018-08-03T02:44:08.277Z,78.94
2018-08-03T02:46:37.030Z,78.78
2018-08-03T02:49:05.694Z,78.72
2018-08-03T02:51:34.433Z,79.12
2018-08-03T02:54:03.134Z,78.80
2018-08-03T02:56:31.762Z,78.65
2018-08-03T02:59:00.459Z,78.79
2018-08-03T03:01:29.064Z,78.95
2018-08-03T03:03:57.743Z,79.50
2018-08-03T03:06:26.399Z,79.83
2018-08-03T03:08:55.068Z,79.60
2018-08-03T03:11:23.721Z,79.37
2018-08-03T03:13:52.403Z,79.12
2018-08-03T03:16:21.058Z,79.37
2018-08-03T03:18:49.727Z,79.51
2018-08-03T03:21:18.406Z,79.74
2018-08-03T03:23:47.082Z,79.29
2018-08-03T03:26:15.732Z,79.52
2018-08-03T03:28:44.360Z,79.74
2018-08-03T03:31:13.010Z,79.71
2018-08-03T03:33:41.632Z,79.61
2018-08-03T03:36:10.297Z,80.50
2018-08-03T03:38:38.931Z,80.65
2018-08-03T03:41:07.664Z,80.39
2018-08-03T03:43:36.440Z,80.09
2018-08-03T03:46:05.162Z,79.96
2018-08-03T03:48:33.814Z,79.98
2018-08-03T03:51:02.476Z,80.33
2018-08-03T03:53:31.409Z,80.06
2018-08-03T03:56:00.245Z,80.37
2018-08-03T03:58:28.840Z,80.02
2018-08-03T04:00:57.503Z,80.54
2018-08-03T04:03:26.102Z,80.49
2018-08-03T04:05:54.947Z,80.29
2018-08-03T04:08:23.617Z,80.57
2018-08-03T04:10:52.297Z,79.91
2018-08-03T04:13:21.128Z,79.42
2018-08-03T04:15:50.019Z,79.60
2018-08-03T04:18:22.343Z,79.63
2018-08-03T04:20:52.462Z,79.64
2018-08-03T04:23:21.421Z,79.56
2018-08-03T04:25:50.106Z,79.31
2018-08-03T04:28:18.754Z,79.63
2018-08-03T04:30:47.478Z,79.10
2018-08-03T04:33:16.110Z,78.80
2018-08-03T04:35:44.837Z,78.44
2018-08-03T04:38:13.496Z,78.30
2018-08-03T04:40:42.143Z,78.75
2018-08-03T04:43:11.062Z,78.43
2018-08-03T04:45:39.743Z,78.43
2018-08-03T04:48:08.379Z,76.90
2018-08-03T04:50:36.983Z,76.65
2018-08-03T04:53:06.341Z,76.11
2018-08-03T04:55:35.533Z,76.56
2018-08-03T04:58:04.322Z,75.61
2018-08-03T05:00:33.264Z,76.33
2018-08-03T05:03:01.971Z,76.43
2018-08-03T05:05:30.650Z,76.34
2018-08-03T05:07:59.263Z,76.59
2018-08-03T05:10:27.911Z,76.51
2018-08-03T05:12:56.619Z,76.60
2018-08-03T05:15:25.331Z,76.65
2018-08-03T05:17:53.971Z,77.37
2018-08-03T05:20:22.677Z,76.61
2018-08-03T05:22:51.351Z,76.44
2018-08-03T05:25:20.022Z,76.62
2018-08-03T05:27:48.647Z,76.58
2018-08-03T05:30:17.385Z,75.74
2018-08-03T05:32:46.058Z,74.75
2018-08-03T05:35:14.707Z,73.27
2018-08-03T05:37:43.374Z,72.92
2018-08-03T05:40:12.113Z,72.08
2018-08-03T05:42:40.864Z,71.25
2018-08-03T05:45:09.861Z,71.10
2018-08-03T05:47:38.537Z,71.64
2018-08-03T05:50:07.612Z,70.38
2018-08-03T05:52:36.307Z,70.56
2018-08-03T05:55:05.147Z,70.35
2018-08-03T05:57:33.783Z,69.41
2018-08-03T06:00:02.442Z,69.37
2018-08-03T06:02:32.169Z,69.63
2018-08-03T06:05:00.855Z,68.87
2018-08-03T06:07:29.711Z,67.84
2018-08-03T06:09:58.366Z,68.30
2018-08-03T06:12:27.034Z,68.70
2018-08-03T06:14:55.690Z,69.24
2018-08-03T06:17:24.341Z,70.28
2018-08-03T06:19:52.994Z,69.90
2018-08-03T06:22:21.612Z,69.99
2018-08-03T06:24:50.246Z,70.32
2018-08-03T06:27:18.917Z,70.17
2018-08-03T06:29:47.650Z,69.26
2018-08-03T06:32:16.331Z,68.91
2018-08-03T06:34:45.007Z,67.40
2018-08-03T06:37:13.630Z,66.36
2018-08-03T06:39:42.327Z,66.67
2018-08-03T06:42:10.950Z,66.29
2018-08-03T06:44:39.563Z,64.71
2018-08-03T06:47:08.219Z,63.39
2018-08-03T06:49:36.903Z,63.34
2018-08-03T06:52:05.659Z,63.92
2018-08-03T06:54:34.262Z,64.41
2018-08-03T06:57:02.955Z,63.76
2018-08-03T06:59:31.600Z,63.75
2018-08-03T07:02:00.339Z,62.92
2018-08-03T07:04:29.162Z,63.67
2018-08-03T07:06:57.807Z,61.97
2018-08-03T07:09:26.420Z,61.18
2018-08-03T07:11:55.098Z,62.45
2018-08-03T07:14:23.710Z,61.84
2018-08-03T07:16:52.361Z,61.65
2018-08-03T07:19:21.038Z,61.74
2018-08-03T07:21:49.675Z,59.89
2018-08-03T07:24:18.367Z,59.74
2018-08-03T07:26:47.024Z,59.55
2018-08-03T07:29:15.670Z,57.55
2018-08-03T07:31:44.304Z,56.97
2018-08-03T07:34:12.998Z,58.16
2018-08-03T07:36:41.706Z,58.23
2018-08-03T07:39:10.409Z,58.04
2018-08-03T07:41:39.122Z,59.30
2018-08-03T07:44:07.838Z,59.61
2018-08-03T07:46:36.650Z,58.16
2018-08-03T07:49:05.377Z,57.56
2018-08-03T07:51:34.066Z,56.15
2018-08-03T07:54:02.746Z,56.28
2018-08-03T07:56:31.400Z,58.15
2018-08-03T07:59:00.044Z,56.63
2018-08-03T08:01:28.888Z,56.94
2018-08-03T08:03:57.531Z,56.26
2018-08-03T08:06:26.219Z,56.69
2018-08-03T08:08:54.846Z,57.87
2018-08-03T08:11:23.486Z,57.59
2018-08-03T08:13:52.626Z,58.86
2018-08-03T08:16:21.274Z,58.85
2018-08-03T08:18:50.260Z,58.70
2018-08-03T08:21:18.927Z,58.04
2018-08-03T08:23:47.767Z,57.42
2018-08-03T08:26:16.483Z,57.63
2018-08-03T08:28:45.135Z,58.93
2018-08-03T08:31:13.795Z,57.93
2018-08-03T08:33:42.398Z,57.77
2018-08-03T08:36:11.103Z,56.75
2018-08-03T08:38:39.851Z,56.27
2018-08-03T08:41:08.518Z,55.97
2018-08-03T08:43:38.231Z,56.66
2018-08-03T08:46:06.975Z,57.49
2018-08-03T08:48:35.556Z,56.54
2018-08-03T08:51:04.191Z,55.96
2018-08-03T08:53:32.929Z,56.19
2018-08-03T08:56:01.574Z,55.52
2018-08-03T08:58:30.268Z,55.60
2018-08-03T09:00:58.956Z,55.24
2018-08-03T09:03:27.627Z,53.32
2018-08-03T09:05:56.439Z,52.70
2018-08-03T09:08:25.020Z,52.32
2018-08-03T09:10:53.677Z,50.13
2018-08-03T09:13:22.310Z,50.25
2018-08-03T09:15:51.020Z,51.17
2018-08-03T09:18:19.716Z,50.44
2018-08-03T09:20:48.351Z,50.40
2018-08-03T09:23:16.952Z,52.65
2018-08-03T09:25:45.675Z,51.36
2018-08-03T09:28:14.333Z,49.35
2018-08-03T09:30:42.942Z,49.81
2018-08-03T09:33:11.589Z,50.67
2018-08-03T09:35:40.202Z,50.73
2018-08-03T09:38:08.863Z,49.36
2018-08-03T09:40:37.459Z,48.49
2018-08-03T09:43:06.104Z,48.73
2018-08-03T09:45:34.734Z,46.11
2018-08-03T09:48:03.471Z,46.65
2018-08-03T09:50:32.136Z,47.50
2018-08-03T09:53:00.782Z,47.86
2018-08-03T09:55:29.399Z,45.27
2018-08-03T09:57:58.022Z,45.95
2018-08-03T10:00:31.851Z,46.58
2018-08-03T10:03:00.514Z,46.75
2018-08-03T10:05:29.133Z,47.33
2018-08-03T10:07:57.753Z,44.88
2018-08-03T10:10:26.526Z,44.98
2018-08-03T10:12:55.193Z,46.37
2018-08-03T10:15:23.828Z,44.92
2018-08-03T10:17:52.529Z,45.92
2018-08-03T10:20:21.163Z,44.21
2018-08-03T10:22:49.812Z,42.48
2018-08-03T10:25:18.500Z,44.27
2018-08-03T10:27:47.152Z,42.44
2018-08-03T10:30:15.951Z,41.62
2018-08-03T10:32:44.578Z,42.74
2018-08-03T10:35:13.282Z,43.76
2018-08-03T10:37:41.912Z,42.51
2018-08-03T10:40:10.648Z,43.46
2018-08-03T10:42:39.303Z,42.00
2018-08-03T10:45:07.927Z,41.16
2018-08-03T10:47:36.600Z,43.46
2018-08-03T10:50:05.314Z,41.59
2018-08-03T10:52:33.966Z,40.59
2018-08-03T10:55:02.627Z,39.42
2018-08-03T10:57:31.264Z,39.56
2018-08-03T10:59:59.942Z,39.31
2018-08-03T11:02:28.598Z,39.22
2018-08-03T11:04:57.281Z,39.58
2018-08-03T11:07:25.996Z,39.30
2018-08-03T11:09:54.670Z,36.75
2018-08-03T11:12:23.332Z,36.23
2018-08-03T11:14:52.062Z,35.56
2018-08-03T11:17:20.726Z,36.30
2018-08-03T11:19:49.366Z,36.44
2018-08-03T11:22:18.016Z,34.34
2018-08-03T11:24:46.758Z,34.28
2018-08-03T11:27:15.457Z,35.27
2018-08-03T11:29:44.140Z,36.38
2018-08-03T11:32:12.848Z,32.86
2018-08-03T11:34:41.507Z,32.93
2018-08-03T11:37:10.262Z,35.04
2018-08-03T11:39:39.526Z,34.60
2018-08-03T11:42:08.190Z,36.27
2018-08-03T11:44:36.915Z,35.33
2018-08-03T11:47:05.598Z,36.96
2018-08-03T11:49:34.370Z,39.02
2018-08-03T11:52:02.972Z,39.04
2018-08-03T11:54:31.630Z,39.52
2018-08-03T11:57:00.275Z,38.70
2018-08-03T11:59:28.957Z,38.73
2018-08-03T12:01:57.675Z,37.09
2018-08-03T12:04:26.331Z,36.96
2018-08-03T12:06:55.046Z,37.38
2018-08-03T12:09:23.716Z,37.33
2018-08-03T12:11:52.387Z,37.83
2018-08-03T12:14:21.013Z,37.63
2018-08-03T12:16:49.626Z,37.74
2018-08-03T12:19:18.280Z,37.15
2018-08-03T12:21:46.886Z,38.21
2018-08-03T12:24:15.559Z,38.65
2018-08-03T12:26:44.200Z,38.03
2018-08-03T12:29:12.877Z,38.59
2018-08-03T12:31:41.561Z,36.66
2018-08-03T12:34:10.243Z,38.24
2018-08-03T12:36:38.897Z,37.29
2018-08-03T12:39:09.583Z,36.38
2018-08-03T12:41:38.453Z,36.24
2018-08-03T12:44:07.558Z,35.65
2018-08-03T12:46:36.252Z,36.85
2018-08-03T12:49:05.024Z,36.54
2018-08-03T12:51:33.963Z,36.09
2018-08-03T12:54:02.563Z,37.03
2018-08-03T12:56:31.230Z,36.61
2018-08-03T13:06:41.570Z,34.26
2018-08-03T13:09:10.158Z,36.21
2018-08-03T13:11:38.769Z,37.94
2018-08-03T13:14:07.410Z,36.41
2018-08-03T13:16:36.096Z,35.92
2018-08-03T13:19:04.882Z,35.37
2018-08-03T13:21:38.482Z,35.54
2018-08-03T13:24:07.376Z,35.01
2018-08-03T13:26:36.123Z,33.56
2018-08-03T13:29:04.862Z,33.49
2018-08-03T13:31:33.530Z,33.27
2018-08-03T13:34:03.758Z,34.24
2018-08-03T13:36:32.786Z,34.30
2018-08-03T13:39:01.442Z,35.07
2018-08-03T13:41:30.275Z,35.22
2018-08-03T13:43:58.960Z,35.07
2018-08-03T13:46:27.748Z,35.36
2018-08-03T13:48:56.410Z,34.54
2018-08-03T13:51:25.200Z,34.39
2018-08-03T13:53:53.858Z,35.30
2018-08-03T13:56:22.479Z,33.98
2018-08-03T13:58:51.090Z,33.87
2018-08-03T14:01:30.740Z,32.57
2018-08-03T14:03:59.446Z,33.51
2018-08-03T14:06:28.049Z,32.79
2018-08-03T14:08:56.681Z,33.07
2018-08-03T14:11:25.327Z,33.54
2018-08-03T14:13:53.951Z,34.48
2018-08-03T14:16:22.638Z,33.99
2018-08-03T14:18:51.290Z,35.43
2018-08-03T14:21:19.904Z,34.48
2018-08-03T14:23:48.521Z,34.82
2018-08-03T14:26:17.175Z,33.75
2018-08-03T14:28:45.829Z,34.72
2018-08-03T14:33:46.440Z,34.09
2018-08-03T14:36:15.161Z,34.52
2018-08-03T14:38:43.929Z,34.51
2018-08-03T14:41:12.668Z,34.06
2018-08-03T14:43:41.352Z,33.99
2018-08-03T14:46:10.043Z,36.03
2018-08-03T14:48:38.664Z,35.18
2018-08-03T14:51:07.465Z,34.36
2018-08-03T14:53:36.200Z,34.35
2018-08-03T14:56:04.926Z,34.95
2018-08-03T14:58:33.605Z,34.53
2018-08-03T15:01:02.243Z,34.83
2018-08-03T15:03:30.892Z,36.26
2018-08-03T15:05:59.531Z,35.75
2018-08-03T15:08:28.159Z,35.87
2018-08-03T15:10:56.816Z,35.78
2018-08-03T15:13:25.528Z,35.00
2018-08-03T15:15:54.148Z,34.89
2018-08-03T16:26:03.271Z,41.28
2018-08-03T16:28:31.920Z,39.82
2018-08-03T16:31:00.511Z,40.20
2018-08-03T16:33:29.140Z,40.37
2018-08-03T16:37:28.127Z,40.61
2018-08-03T16:39:56.822Z,40.49
2018-08-03T16:42:25.611Z,41.17
2018-08-03T16:44:54.238Z,40.23
2018-08-03T16:47:23.054Z,41.30
2018-08-03T16:49:51.742Z,41.11
2018-08-03T16:52:20.492Z,41.58
2018-08-03T16:54:49.140Z,42.90
2018-08-03T16:57:17.775Z,42.80
2018-08-03T16:59:46.371Z,42.37
2018-08-03T17:02:15.018Z,43.44
2018-08-03T17:04:43.613Z,43.05
2018-08-03T17:07:12.288Z,44.63
2018-08-03T17:09:40.880Z,43.96
2018-08-03T17:12:09.458Z,44.67
2018-08-03T17:14:38.121Z,45.18
2018-08-03T17:17:06.804Z,45.44
2018-08-03T17:19:35.503Z,45.63
2018-08-03T17:22:04.132Z,46.30
2018-08-03T17:24:32.766Z,46.40
2018-08-03T17:27:01.492Z,45.52
2018-08-03T17:29:30.050Z,45.52
2018-08-03T17:31:58.773Z,46.32
2018-08-03T17:34:27.468Z,46.59
2018-08-03T17:36:56.130Z,46.90
2018-08-03T17:39:24.786Z,47.57
2018-08-03T17:41:53.470Z,48.75
2018-08-03T17:44:22.206Z,48.55
2018-08-03T17:46:50.846Z,49.18
2018-08-03T17:49:19.488Z,49.27
2018-08-03T17:51:48.215Z,49.10
2018-08-03T17:54:17.204Z,49.72
2018-08-03T17:56:45.794Z,49.28
2018-08-03T17:59:14.395Z,49.30
2018-08-03T18:01:43.043Z,49.43
2018-08-03T18:04:11.677Z,50.28
2018-08-03T18:06:40.262Z,51.09
2018-08-03T18:09:08.922Z,51.54
2018-08-03T18:11:37.630Z,51.72
2018-08-03T18:14:06.315Z,51.09
2018-08-03T18:16:34.927Z,51.56
2018-08-03T18:19:03.598Z,51.88
2018-08-03T18:21:32.314Z,52.36
2018-08-03T18:24:01.027Z,53.17
2018-08-03T18:26:29.604Z,53.34
2018-08-03T18:28:58.361Z,53.30
2018-08-03T18:31:26.975Z,53.68
2018-08-03T18:33:55.610Z,54.41
2018-08-03T18:36:24.275Z,54.30
2018-08-03T18:38:53.194Z,54.62
2018-08-03T18:41:21.824Z,54.69
2018-08-03T18:43:50.513Z,55.14
2018-08-03T18:46:19.730Z,55.66
2018-08-03T18:48:48.366Z,54.91
2018-08-03T18:51:17.025Z,55.62
2018-08-03T18:53:45.654Z,56.00
2018-08-03T18:56:14.354Z,54.93
2018-08-03T18:58:43.054Z,55.96
2018-08-03T19:01:11.707Z,53.99
2018-08-03T19:03:40.351Z,55.12
2018-08-03T19:06:09.062Z,55.18
2018-08-03T19:08:37.713Z,55.20
2018-08-03T19:11:06.445Z,55.70
2018-08-03T19:13:35.092Z,54.85
2018-08-03T19:16:03.857Z,54.69
2018-08-03T19:18:32.519Z,55.50
2018-08-03T19:21:01.216Z,55.78
2018-08-03T19:23:29.988Z,55.77
2018-08-03T19:25:58.663Z,56.34
2018-08-03T19:28:27.358Z,57.06
2018-08-03T19:30:56.061Z,57.00
2018-08-03T19:33:24.713Z,57.00
2018-08-03T19:35:53.348Z,57.79
2018-08-03T19:38:22.003Z,57.47
2018-08-03T19:40:50.649Z,57.18
2018-08-03T19:43:19.389Z,57.33
2018-08-03T19:45:48.034Z,58.60
2018-08-03T19:48:16.679Z,57.83
2018-08-03T19:50:45.407Z,57.67
2018-08-03T19:53:13.986Z,57.79
2018-08-03T19:55:42.650Z,58.36
2018-08-03T19:58:11.288Z,58.43
2018-08-03T20:00:39.921Z,58.35
2018-08-03T20:03:08.623Z,58.84
2018-08-03T20:05:37.319Z,58.63
2018-08-03T20:08:07.119Z,59.53
2018-08-03T20:10:35.771Z,59.21
2018-08-03T20:13:04.442Z,58.54
2018-08-03T20:15:33.066Z,59.40
2018-08-03T20:18:01.742Z,59.34
2018-08-03T20:20:30.371Z,58.73
2018-08-03T20:22:59.023Z,58.51
2018-08-03T20:25:27.639Z,59.74
2018-08-03T20:27:56.379Z,59.22
2018-08-03T20:30:25.182Z,59.96
2018-08-03T20:32:53.979Z,59.15
2018-08-03T20:35:22.675Z,59.88
2018-08-03T20:37:51.334Z,58.82
2018-08-03T20:40:20.052Z,58.85
2018-08-03T20:42:48.978Z,59.20
2018-08-03T20:45:17.717Z,59.03
2018-08-03T20:47:46.423Z,59.73
2018-08-03T20:50:15.340Z,59.38
2018-08-03T20:52:43.957Z,59.68
2018-08-03T20:55:13.298Z,60.06
2018-08-03T20:57:41.899Z,59.71
2018-08-03T21:00:10.715Z,60.44
2018-08-03T21:02:39.330Z,61.29
2018-08-03T21:05:07.998Z,61.41
2018-08-03T21:07:36.622Z,60.95
2018-08-03T21:10:05.398Z,60.56
2018-08-03T21:12:34.094Z,60.65
2018-08-03T21:15:02.904Z,60.52
2018-08-03T21:17:31.560Z,61.06
2018-08-03T21:20:00.183Z,61.73
2018-08-03T21:22:28.809Z,61.98
2018-08-03T21:24:57.447Z,62.01
2018-08-03T21:27:26.247Z,62.94
2018-08-03T21:29:54.895Z,63.41
2018-08-03T21:32:23.567Z,64.02
2018-08-03T21:34:52.367Z,63.19
2018-08-03T21:37:21.126Z,64.40
2018-08-03T21:39:49.803Z,63.70
2018-08-03T21:42:19.194Z,63.75
2018-08-03T21:44:47.779Z,62.87
2018-08-03T21:47:16.419Z,63.57
2018-08-03T21:49:45.038Z,63.72
2018-08-03T21:52:13.895Z,63.62
2018-08-03T21:54:42.594Z,64.69
2018-08-03T21:57:11.280Z,63.55
2018-08-03T21:59:39.971Z,64.55
2018-08-03T22:02:08.697Z,64.97
2018-08-03T22:04:37.354Z,65.00
2018-08-03T22:07:06.060Z,65.61
2018-08-03T22:09:34.751Z,66.28
2018-08-03T22:12:03.533Z,66.25
2018-08-03T22:14:32.269Z,66.20
2018-08-03T22:17:00.974Z,65.50
2018-08-03T22:19:29.663Z,65.26
2018-08-03T22:21:58.262Z,65.59
2018-08-03T22:24:27.016Z,65.66
2018-08-03T22:26:55.697Z,65.93
2018-08-03T22:29:24.479Z,66.05
2018-08-03T22:31:53.119Z,66.47
2018-08-03T22:34:21.851Z,66.47
2018-08-03T22:36:50.438Z,66.90
2018-08-03T22:39:19.090Z,66.62
2018-08-03T22:41:47.713Z,66.27
2018-08-03T22:44:16.358Z,66.46
2018-08-03T22:46:45.014Z,66.16
2018-08-03T22:49:13.633Z,66.19
2018-08-03T22:51:42.290Z,65.72
2018-08-03T22:54:11.003Z,66.14
2018-08-03T22:56:39.634Z,65.70
2018-08-03T22:59:08.242Z,66.09
2018-08-03T23:01:36.894Z,65.60
2018-08-03T23:04:05.663Z,65.55
2018-08-03T23:06:34.357Z,65.57
2018-08-03T23:09:03.167Z,66.28
2018-08-03T23:11:31.897Z,66.25
2018-08-03T23:14:00.659Z,66.39
2018-08-03T23:16:29.281Z,66.82
2018-08-03T23:18:57.885Z,66.43
2018-08-03T23:21:26.568Z,67.02
2018-08-03T23:23:55.222Z,66.53
2018-08-03T23:26:23.855Z,67.14
2018-08-03T23:28:52.589Z,66.99
2018-08-03T23:31:21.267Z,67.20
2018-08-03T23:33:49.927Z,66.78
2018-08-03T23:36:18.585Z,66.71
2018-08-03T23:38:47.248Z,67.29
2018-08-03T23:41:16.030Z,66.46
2018-08-03T23:43:44.614Z,66.83
2018-08-03T23:46:13.275Z,66.44
2018-08-03T23:48:41.887Z,66.27
2018-08-03T23:51:10.508Z,66.91
2018-08-03T23:53:39.159Z,66.25
2018-08-03T23:56:07.755Z,65.71
2018-08-03T23:58:36.358Z,67.18
